Time;durP1;ratioP1;P1;durP2;ratioP2;P2;SDS_P1;SDS_P2;PMS_P1;PMS_P2;Temp;Humidity;BMP_temperature;BMP_pressure;BME280_temperature;BME280_humidity;BME280_pressure;Samples;Min_cycle;Max_cycle;Signal;HPM_P1;HPM_P2
2023/02/18 00:00:17;;;;;;;57.97;2.50;;;;;;;;;;5072852;28;20451;-70
2023/02/18 00:02:44;;;;;;;58.50;2.97;;;;;;;;;;5073117;28;20443;-70
2023/02/18 00:05:11;;;;;;;57.57;2.50;;;;;;;;;;5073275;28;20487;-70
2023/02/18 00:07:40;;;;;;;57.47;2.73;;;;;;;;;;5073163;28;20443;-70
2023/02/18 00:10:11;;;;;;;57.60;2.63;;;;;;;;;;5072816;28;20452;-70
2023/02/18 00:12:39;;;;;;;58.73;2.63;;;;;;;;;;5072887;28;20443;-70
2023/02/18 00:15:07;;;;;;;57.87;3.00;;;;;;;;;;5072770;28;20474;-70
2023/02/18 00:17:34;;;;;;;58.40;2.90;;;;;;;;;;5072955;28;20832;-69
2023/02/18 00:20:01;;;;;;;58.80;2.90;;;;;;;;;;5072549;28;20824;-69
2023/02/18 00:22:28;;;;;;;57.47;2.40;;;;;;;;;;5072839;28;20450;-70
2023/02/18 00:24:56;;;;;;;57.57;2.73;;;;;;;;;;5072427;28;20502;-70
2023/02/18 00:27:24;;;;;;;57.77;2.90;;;;;;;;;;5072626;28;20453;-70
2023/02/18 00:29:51;;;;;;;59.07;2.40;;;;;;;;;;5072207;28;20458;-71
2023/02/18 00:32:18;;;;;;;58.13;2.83;;;;;;;;;;5072675;28;20542;-70
2023/02/18 00:34:45;;;;;;;57.60;2.50;;;;;;;;;;5072691;28;20466;-69
2023/02/18 00:37:12;;;;;;;57.67;2.50;;;;;;;;;;5072602;28;20449;-70
2023/02/18 00:39:39;;;;;;;58.00;3.10;;;;;;;;;;5072071;28;20448;-70
2023/02/18 00:42:08;;;;;;;57.80;2.93;;;;;;;;;;5072249;28;20444;-71
2023/02/18 00:44:35;;;;;;;57.90;2.70;;;;;;;;;;5072411;28;20490;-70
2023/02/18 00:47:02;;;;;;;57.13;2.30;;;;;;;;;;5072275;28;20479;-71
2023/02/18 00:49:29;;;;;;;57.67;2.77;;;;;;;;;;5072300;28;20447;-71
2023/02/18 00:51:56;;;;;;;58.23;2.87;;;;;;;;;;5072306;28;20451;-72
2023/02/18 00:54:23;;;;;;;57.43;2.70;;;;;;;;;;5071929;28;20478;-70
2023/02/18 00:56:50;;;;;;;58.03;2.57;;;;;;;;;;5072438;28;20466;-71
2023/02/18 00:59:19;;;;;;;58.60;2.50;;;;;;;;;;5071918;28;20870;-71
2023/02/18 01:01:46;;;;;;;58.00;2.90;;;;;;;;;;5072324;28;20451;-71
2023/02/18 01:04:13;;;;;;;58.37;3.10;;;;;;;;;;5071968;28;20479;-72
2023/02/18 01:06:40;;;;;;;57.90;2.90;;;;;;;;;;5071963;28;20453;-71
2023/02/18 01:09:07;;;;;;;57.37;2.70;;;;;;;;;;5071231;28;20458;-72
2023/02/18 01:11:35;;;;;;;58.87;2.90;;;;;;;;;;5072112;28;20835;-70
2023/02/18 01:14:02;;;;;;;57.80;2.67;;;;;;;;;;5071950;28;20451;-70
2023/02/18 01:16:30;;;;;;;57.80;2.70;;;;;;;;;;5072085;28;20443;-70
2023/02/18 01:18:57;;;;;;;57.80;2.70;;;;;;;;;;5071363;28;20449;-70
2023/02/18 01:21:25;;;;;;;57.53;2.37;;;;;;;;;;5071682;28;20447;-71
2023/02/18 01:23:52;;;;;;;57.83;2.70;;;;;;;;;;5071777;28;20460;-70
2023/02/18 01:26:19;;;;;;;57.60;2.80;;;;;;;;;;5071863;28;20487;-71
2023/02/18 01:28:46;;;;;;;57.53;2.80;;;;;;;;;;5071637;28;20450;-71
2023/02/18 01:31:14;;;;;;;57.80;2.40;;;;;;;;;;5071792;28;20454;-69
2023/02/18 01:33:42;;;;;;;57.40;2.53;;;;;;;;;;5071687;28;20443;-71
2023/02/18 01:36:10;;;;;;;58.20;2.87;;;;;;;;;;5071471;28;20467;-71
2023/02/18 01:38:37;;;;;;;57.47;2.77;;;;;;;;;;5071453;28;20454;-71
2023/02/18 01:41:05;;;;;;;57.87;2.73;;;;;;;;;;5071830;28;20474;-71
2023/02/18 01:43:32;;;;;;;58.07;3.33;;;;;;;;;;5071828;28;20983;-71
2023/02/18 01:46:00;;;;;;;58.17;2.70;;;;;;;;;;5071518;28;20490;-71
2023/02/18 01:48:30;;;;;;;57.77;2.77;;;;;;;;;;5071367;28;20528;-71
2023/02/18 01:51:00;;;;;;;57.70;2.87;;;;;;;;;;5071618;28;20466;-71
2023/02/18 01:53:30;;;;;;;57.67;3.20;;;;;;;;;;5071625;28;20446;-71
2023/02/18 01:55:59;;;;;;;58.60;2.90;;;;;;;;;;5071456;28;20841;-71
2023/02/18 01:58:26;;;;;;;58.20;3.30;;;;;;;;;;5071537;28;20443;-71
2023/02/18 02:00:53;;;;;;;57.70;2.90;;;;;;;;;;5071233;28;20447;-70
2023/02/18 02:03:20;;;;;;;57.60;2.93;;;;;;;;;;5071361;28;20820;-70
2023/02/18 02:05:47;;;;;;;57.77;2.87;;;;;;;;;;5071691;28;20867;-70
2023/02/18 02:08:16;;;;;;;59.03;3.00;;;;;;;;;;5071428;28;20457;-71
2023/02/18 02:10:51;;;;;;;57.77;2.87;;;;;;;;;;5071272;28;20451;-71
2023/02/18 02:13:22;;;;;;;58.47;3.20;;;;;;;;;;5071553;28;20449;-71
2023/02/18 02:15:52;;;;;;;58.07;3.13;;;;;;;;;;5071280;28;20463;-71
2023/02/18 02:18:25;;;;;;;58.80;2.97;;;;;;;;;;5071246;28;20457;-71
2023/02/18 02:21:07;;;;;;;58.13;3.10;;;;;;;;;;5072043;28;20918;-71
2023/02/18 02:23:49;;;;;;;57.97;2.60;;;;;;;;;;5062441;28;20473;-71
2023/02/18 02:26:27;;;;;;;59.07;3.00;;;;;;;;;;5074715;28;20482;-71
2023/02/18 02:29:03;;;;;;;58.10;3.00;;;;;;;;;;5074686;28;20835;-71
2023/02/18 02:32:01;;;;;;;58.00;3.03;;;;;;;;;;5075098;28;20455;-71
2023/02/18 02:34:46;;;;;;;57.70;2.80;;;;;;;;;;5075165;28;20467;-71
2023/02/18 02:37:17;;;;;;;57.90;2.87;;;;;;;;;;5074651;28;20563;-71
2023/02/18 02:39:50;;;;;;;58.27;3.10;;;;;;;;;;5074505;28;20535;-71
2023/02/18 02:42:20;;;;;;;58.33;3.40;;;;;;;;;;5074634;28;20451;-71
2023/02/18 02:44:51;;;;;;;58.87;3.57;;;;;;;;;;5074353;28;20459;-71
2023/02/18 02:47:21;;;;;;;57.90;2.97;;;;;;;;;;5074757;28;20446;-71
2023/02/18 02:49:50;;;;;;;58.13;3.10;;;;;;;;;;5074423;28;20447;-70
2023/02/18 02:52:21;;;;;;;59.20;2.93;;;;;;;;;;5074324;28;20458;-71
2023/02/18 02:54:49;;;;;;;58.67;3.03;;;;;;;;;;5074516;28;20471;-71
2023/02/18 02:57:34;;;;;;;58.20;3.20;;;;;;;;;;5072696;28;20840;-71
2023/02/18 03:00:04;;;;;;;58.07;3.10;;;;;;;;;;5074010;28;20452;-71
2023/02/18 03:02:36;;;;;;;58.00;3.10;;;;;;;;;;5074671;28;20538;-71
2023/02/18 03:05:15;;;;;;;57.93;3.30;;;;;;;;;;5074236;28;20488;-71
2023/02/18 03:07:54;;;;;;;58.20;3.10;;;;;;;;;;5074417;28;20459;-71
2023/02/18 03:10:28;;;;;;;57.77;3.00;;;;;;;;;;5074057;28;20451;-71
2023/02/18 03:12:58;;;;;;;58.90;3.10;;;;;;;;;;5074229;28;20482;-71
2023/02/18 03:15:29;;;;;;;60.40;3.23;;;;;;;;;;5074308;28;20459;-71
2023/02/18 03:17:59;;;;;;;59.17;2.70;;;;;;;;;;5073892;28;20443;-71
2023/02/18 03:20:27;;;;;;;57.70;2.80;;;;;;;;;;5073712;28;20454;-71
2023/02/18 03:22:57;;;;;;;58.60;3.10;;;;;;;;;;5074060;28;20459;-71
2023/02/18 03:25:24;;;;;;;57.67;2.77;;;;;;;;;;5073654;28;20490;-71
2023/02/18 03:27:53;;;;;;;58.27;3.17;;;;;;;;;;5073525;28;20458;-71
2023/02/18 03:30:23;;;;;;;58.10;2.90;;;;;;;;;;5073864;28;20461;-71
2023/02/18 03:32:55;;;;;;;58.37;3.40;;;;;;;;;;5073628;28;20522;-71
2023/02/18 03:35:22;;;;;;;57.87;2.87;;;;;;;;;;5073665;28;20467;-71
2023/02/18 03:37:51;;;;;;;58.20;3.03;;;;;;;;;;5073432;28;20457;-71
2023/02/18 03:40:20;;;;;;;61.33;3.40;;;;;;;;;;5073270;28;20834;-71
2023/02/18 03:42:47;;;;;;;58.03;3.13;;;;;;;;;;5073470;28;20453;-71
2023/02/18 03:45:14;;;;;;;60.80;3.27;;;;;;;;;;5073422;28;20483;-71
2023/02/18 03:47:41;;;;;;;58.70;3.17;;;;;;;;;;5073338;28;20938;-71
2023/02/18 03:50:09;;;;;;;58.13;3.10;;;;;;;;;;5073282;28;20439;-71
2023/02/18 03:52:36;;;;;;;58.67;2.87;;;;;;;;;;5073186;28;20940;-71
2023/02/18 03:55:03;;;;;;;58.67;3.23;;;;;;;;;;5073027;28;20563;-71
2023/02/18 03:57:32;;;;;;;58.17;3.00;;;;;;;;;;5073282;28;20932;-72
2023/02/18 03:59:59;;;;;;;58.40;3.47;;;;;;;;;;5072811;28;20461;-71
2023/02/18 04:02:26;;;;;;;58.53;2.80;;;;;;;;;;5073176;28;20469;-71
2023/02/18 04:04:53;;;;;;;59.90;3.10;;;;;;;;;;5073192;28;20471;-71
2023/02/18 04:07:20;;;;;;;58.37;3.10;;;;;;;;;;5073073;28;20509;-71
2023/02/18 04:09:48;;;;;;;58.40;3.33;;;;;;;;;;5072652;28;20439;-72
2023/02/18 04:12:15;;;;;;;59.70;3.20;;;;;;;;;;5073058;28;20459;-71
2023/02/18 04:14:43;;;;;;;58.07;3.00;;;;;;;;;;5072992;28;20467;-71
2023/02/18 04:17:10;;;;;;;57.90;2.97;;;;;;;;;;5072955;28;20493;-71
2023/02/18 04:19:37;;;;;;;58.53;3.13;;;;;;;;;;5072599;28;20447;-71
2023/02/18 04:22:05;;;;;;;58.60;3.10;;;;;;;;;;5072584;28;20458;-71
2023/02/18 04:24:32;;;;;;;59.03;3.03;;;;;;;;;;5072698;28;20479;-71
2023/02/18 04:26:59;;;;;;;58.50;3.20;;;;;;;;;;5072915;28;20523;-71
2023/02/18 04:29:26;;;;;;;57.93;3.10;;;;;;;;;;5072397;28;20832;-71
2023/02/18 04:31:54;;;;;;;57.67;2.50;;;;;;;;;;5072778;28;20447;-71
2023/02/18 04:34:21;;;;;;;58.17;3.23;;;;;;;;;;5072503;28;21025;-72
2023/02/18 04:36:48;;;;;;;58.00;3.07;;;;;;;;;;5072890;28;20443;-72
2023/02/18 04:39:16;;;;;;;58.10;3.37;;;;;;;;;;5072121;28;20952;-72
2023/02/18 04:41:43;;;;;;;57.97;2.97;;;;;;;;;;5072487;28;20451;-72
2023/02/18 04:44:10;;;;;;;58.07;3.10;;;;;;;;;;5071795;28;21108;-72
2023/02/18 04:46:37;;;;;;;58.70;3.20;;;;;;;;;;5072355;28;20479;-72
2023/02/18 04:49:05;;;;;;;57.87;3.33;;;;;;;;;;5071900;28;20944;-72
2023/02/18 04:51:32;;;;;;;58.17;3.03;;;;;;;;;;5072161;28;20443;-72
2023/02/18 04:53:59;;;;;;;58.10;3.33;;;;;;;;;;5072380;28;20917;-72
2023/02/18 04:56:26;;;;;;;59.20;3.60;;;;;;;;;;5072405;28;20444;-72
2023/02/18 04:58:54;;;;;;;58.23;3.10;;;;;;;;;;5072038;28;20455;-71
2023/02/18 05:01:21;;;;;;;58.10;3.00;;;;;;;;;;5072618;28;20817;-71
2023/02/18 05:03:48;;;;;;;58.03;3.20;;;;;;;;;;5072028;28;20789;-71
2023/02/18 05:06:16;;;;;;;57.97;3.47;;;;;;;;;;5071999;28;20487;-71
2023/02/18 05:08:43;;;;;;;57.67;3.20;;;;;;;;;;5072114;28;20443;-72
2023/02/18 05:11:10;;;;;;;58.43;3.13;;;;;;;;;;5071992;28;20966;-71
2023/02/18 05:13:38;;;;;;;58.33;3.20;;;;;;;;;;5072077;28;20447;-71
2023/02/18 05:16:05;;;;;;;57.83;3.13;;;;;;;;;;5071933;28;20463;-71
2023/02/18 05:18:32;;;;;;;58.87;3.70;;;;;;;;;;5071565;28;20450;-72
2023/02/18 05:20:59;;;;;;;60.00;3.93;;;;;;;;;;5071791;28;20454;-71
2023/02/18 05:23:28;;;;;;;58.40;3.40;;;;;;;;;;5071874;28;20550;-71
2023/02/18 05:25:55;;;;;;;58.73;3.47;;;;;;;;;;5071833;28;20491;-71
2023/02/18 05:28:22;;;;;;;58.30;3.50;;;;;;;;;;5071705;28;20448;-72
2023/02/18 05:30:49;;;;;;;58.60;2.93;;;;;;;;;;5071598;28;20474;-71
2023/02/18 05:33:16;;;;;;;58.20;3.10;;;;;;;;;;5071829;28;20547;-71
2023/02/18 05:35:43;;;;;;;58.00;3.10;;;;;;;;;;5071800;28;20467;-71
2023/02/18 05:38:10;;;;;;;59.20;3.43;;;;;;;;;;5071621;28;20446;-69
2023/02/18 05:40:39;;;;;;;57.83;3.40;;;;;;;;;;5071635;28;20451;-71
2023/02/18 05:43:06;;;;;;;58.50;3.50;;;;;;;;;;5071861;28;20458;-71
2023/02/18 05:45:33;;;;;;;58.10;3.53;;;;;;;;;;5071487;28;20468;-71
2023/02/18 05:48:01;;;;;;;58.63;3.60;;;;;;;;;;5071769;28;20454;-71
2023/02/18 05:50:28;;;;;;;57.93;2.90;;;;;;;;;;5071561;28;20443;-71
2023/02/18 05:52:55;;;;;;;58.90;3.50;;;;;;;;;;5071707;28;20450;-71
2023/02/18 05:55:23;;;;;;;57.63;2.83;;;;;;;;;;5073464;28;20489;-71
2023/02/18 05:57:52;;;;;;;58.20;3.10;;;;;;;;;;5075649;28;20824;-71
2023/02/18 06:00:19;;;;;;;57.80;3.50;;;;;;;;;;5075217;28;20948;-71
2023/02/18 06:02:46;;;;;;;58.77;3.23;;;;;;;;;;5075720;28;20457;-71
2023/02/18 06:05:13;;;;;;;58.20;3.37;;;;;;;;;;5075195;28;21002;-71
2023/02/18 06:07:40;;;;;;;59.13;3.00;;;;;;;;;;5075983;28;20489;-71
2023/02/18 06:10:08;;;;;;;58.30;3.67;;;;;;;;;;5074950;28;20962;-71
2023/02/18 06:12:35;;;;;;;57.90;3.07;;;;;;;;;;5075170;28;20458;-71
2023/02/18 06:15:04;;;;;;;58.33;3.30;;;;;;;;;;5075446;28;20475;-71
2023/02/18 06:17:31;;;;;;;58.10;3.23;;;;;;;;;;5075412;28;20788;-71
2023/02/18 06:19:58;;;;;;;58.20;3.10;;;;;;;;;;5074840;28;20449;-71
2023/02/18 06:22:25;;;;;;;57.97;3.00;;;;;;;;;;5075450;28;20453;-71
2023/02/18 06:24:52;;;;;;;58.10;2.90;;;;;;;;;;5075152;28;20475;-71
2023/02/18 06:27:19;;;;;;;59.27;2.93;;;;;;;;;;5074994;28;20497;-71
2023/02/18 06:29:46;;;;;;;57.57;3.30;;;;;;;;;;5074787;28;21069;-71
2023/02/18 06:32:14;;;;;;;58.67;3.00;;;;;;;;;;5074965;28;20459;-71
2023/02/18 06:34:43;;;;;;;57.90;3.23;;;;;;;;;;5074831;28;20495;-71
2023/02/18 06:37:10;;;;;;;58.07;2.97;;;;;;;;;;5074937;28;20825;-71
2023/02/18 06:39:37;;;;;;;59.20;3.53;;;;;;;;;;5074579;28;20455;-71
2023/02/18 06:42:04;;;;;;;58.27;3.00;;;;;;;;;;5075054;28;20465;-71
2023/02/18 06:44:31;;;;;;;58.30;3.30;;;;;;;;;;5074879;28;20534;-71
2023/02/18 06:46:58;;;;;;;59.80;4.30;;;;;;;;;;5074791;28;20497;-71
2023/02/18 06:49:27;;;;;;;58.37;2.93;;;;;;;;;;5074616;28;20838;-71
2023/02/18 06:51:54;;;;;;;58.10;3.10;;;;;;;;;;5074697;28;20454;-71
2023/02/18 06:54:21;;;;;;;59.00;3.50;;;;;;;;;;5074543;28;20479;-71
2023/02/18 06:56:49;;;;;;;58.60;3.63;;;;;;;;;;5074409;28;20949;-71
2023/02/18 06:59:16;;;;;;;58.10;3.53;;;;;;;;;;5074413;28;20501;-71
2023/02/18 07:01:44;;;;;;;58.30;3.40;;;;;;;;;;5074351;28;20470;-72
2023/02/18 07:04:11;;;;;;;58.47;3.20;;;;;;;;;;5074307;28;20478;-71
2023/02/18 07:06:39;;;;;;;57.70;2.90;;;;;;;;;;5073384;28;20824;-72
2023/02/18 07:09:07;;;;;;;58.57;3.67;;;;;;;;;;5073944;28;20451;-71
2023/02/18 07:11:34;;;;;;;60.50;3.83;;;;;;;;;;5075548;28;20447;-72
2023/02/18 07:14:01;;;;;;;58.00;3.10;;;;;;;;;;5074202;28;20443;-71
2023/02/18 07:16:28;;;;;;;58.30;3.20;;;;;;;;;;5074227;28;20462;-71
2023/02/18 07:18:55;;;;;;;58.20;2.97;;;;;;;;;;5073651;28;20458;-71
2023/02/18 07:21:22;;;;;;;58.17;3.37;;;;;;;;;;5073863;28;20982;-71
2023/02/18 07:23:50;;;;;;;58.20;3.00;;;;;;;;;;5073964;28;20469;-71
2023/02/18 07:26:18;;;;;;;58.17;3.10;;;;;;;;;;5073817;28;20456;-71
2023/02/18 07:28:45;;;;;;;58.37;3.30;;;;;;;;;;5073746;28;20449;-71
2023/02/18 07:31:12;;;;;;;58.30;3.47;;;;;;;;;;5074364;28;20447;-71
2023/02/18 07:33:39;;;;;;;58.30;3.30;;;;;;;;;;5073687;28;20443;-71
2023/02/18 07:36:07;;;;;;;58.77;3.20;;;;;;;;;;5073591;28;20476;-71
2023/02/18 07:38:34;;;;;;;58.67;3.20;;;;;;;;;;5073310;28;20978;-71
2023/02/18 07:41:03;;;;;;;58.87;3.70;;;;;;;;;;5070364;28;20454;-77
2023/02/18 07:43:30;;;;;;;59.30;4.00;;;;;;;;;;5072519;28;21011;-75
2023/02/18 07:45:57;;;;;;;61.23;3.50;;;;;;;;;;5072979;28;20494;-74
2023/02/18 07:48:24;;;;;;;57.93;2.93;;;;;;;;;;5072455;28;20483;-75
2023/02/18 07:50:51;;;;;;;57.90;3.10;;;;;;;;;;5072834;28;20473;-75
2023/02/18 07:53:18;;;;;;;62.47;3.20;;;;;;;;;;5073190;28;20459;-75
2023/02/18 07:55:51;;;;;;;59.37;3.20;;;;;;;;;;5072815;28;20840;-75
2023/02/18 07:58:20;;;;;;;59.10;3.53;;;;;;;;;;5072191;28;20451;-75
2023/02/18 08:00:49;;;;;;;58.30;3.50;;;;;;;;;;5072551;28;20827;-75
2023/02/18 08:03:16;;;;;;;57.97;3.20;;;;;;;;;;5072282;28;20447;-74
2023/02/18 08:05:43;;;;;;;58.37;3.30;;;;;;;;;;5073356;28;20559;-76
2023/02/18 08:08:13;;;;;;;57.70;2.90;;;;;;;;;;5072936;28;21033;-76
2023/02/18 08:10:40;;;;;;;58.77;3.30;;;;;;;;;;5072446;28;20456;-76
2023/02/18 08:13:07;;;;;;;58.67;3.77;;;;;;;;;;5072715;28;20815;-75
2023/02/18 08:15:36;;;;;;;59.20;3.40;;;;;;;;;;5072731;28;20459;-75
2023/02/18 08:18:03;;;;;;;59.37;3.30;;;;;;;;;;5072061;28;20466;-75
2023/02/18 08:20:30;;;;;;;58.60;3.30;;;;;;;;;;5072128;28;20451;-75
2023/02/18 08:22:57;;;;;;;58.57;3.43;;;;;;;;;;5072084;28;20494;-75
2023/02/18 08:25:24;;;;;;;61.13;3.90;;;;;;;;;;5072572;28;20466;-76
2023/02/18 08:27:52;;;;;;;58.30;3.50;;;;;;;;;;5072288;28;20484;-75
2023/02/18 08:30:19;;;;;;;58.30;3.33;;;;;;;;;;5071789;28;20833;-75
2023/02/18 08:32:47;;;;;;;58.07;3.43;;;;;;;;;;5072601;28;20463;-75
2023/02/18 08:35:14;;;;;;;58.00;3.40;;;;;;;;;;5072399;28;20846;-75
2023/02/18 08:37:42;;;;;;;58.50;3.60;;;;;;;;;;5072452;28;20465;-74
2023/02/18 08:40:10;;;;;;;60.27;3.70;;;;;;;;;;5071855;28;20936;-76
2023/02/18 08:42:37;;;;;;;59.40;3.70;;;;;;;;;;5071841;28;20451;-75
2023/02/18 08:45:04;;;;;;;58.50;3.57;;;;;;;;;;5072024;28;20470;-76
2023/02/18 08:47:31;;;;;;;58.80;3.40;;;;;;;;;;5072157;28;20858;-74
2023/02/18 08:50:00;;;;;;;60.30;3.20;;;;;;;;;;5071715;28;20443;-76
2023/02/18 08:52:27;;;;;;;57.90;2.90;;;;;;;;;;5072157;28;20456;-76
2023/02/18 08:54:54;;;;;;;58.10;2.90;;;;;;;;;;5071960;28;20863;-76
2023/02/18 08:57:21;;;;;;;58.07;3.07;;;;;;;;;;5072138;28;20436;-76
2023/02/18 08:59:48;;;;;;;59.70;3.60;;;;;;;;;;5071890;28;20447;-76
2023/02/18 09:02:15;;;;;;;58.07;2.87;;;;;;;;;;5072050;28;20469;-76
2023/02/18 09:04:42;;;;;;;58.97;3.20;;;;;;;;;;5071653;28;20475;-76
2023/02/18 09:07:11;;;;;;;57.90;3.07;;;;;;;;;;5072023;28;20490;-76
2023/02/18 09:09:38;;;;;;;58.60;3.40;;;;;;;;;;5071382;28;20457;-73
2023/02/18 09:12:05;;;;;;;58.10;3.13;;;;;;;;;;5071789;28;20948;-76
2023/02/18 09:14:32;;;;;;;57.97;3.00;;;;;;;;;;5071895;28;20471;-77
2023/02/18 09:17:00;;;;;;;57.70;3.00;;;;;;;;;;5072004;28;20453;-77
2023/02/18 09:19:27;;;;;;;58.20;3.33;;;;;;;;;;5071646;28;20534;-77
2023/02/18 09:21:56;;;;;;;58.17;3.13;;;;;;;;;;5071453;28;20963;-76
2023/02/18 09:24:24;;;;;;;58.00;3.10;;;;;;;;;;5070939;28;20964;-76
2023/02/18 09:26:53;;;;;;;58.30;3.10;;;;;;;;;;5071970;28;20455;-77
2023/02/18 09:29:20;;;;;;;58.50;3.20;;;;;;;;;;5071163;28;20576;-77
2023/02/18 09:31:47;;;;;;;58.60;2.83;;;;;;;;;;5071745;28;20447;-77
2023/02/18 09:34:14;;;;;;;57.83;3.10;;;;;;;;;;5071639;28;20843;-76
2023/02/18 09:36:41;;;;;;;59.27;3.30;;;;;;;;;;5071665;28;20447;-76
2023/02/18 09:39:08;;;;;;;58.10;2.90;;;;;;;;;;5071704;28;20454;-76
2023/02/18 09:41:38;;;;;;;58.67;2.90;;;;;;;;;;5071528;28;20466;-76
2023/02/18 09:44:06;;;;;;;58.67;3.07;;;;;;;;;;5071715;28;20967;-76
2023/02/18 09:46:35;;;;;;;57.87;2.63;;;;;;;;;;5069900;28;20444;-74
2023/02/18 09:49:03;;;;;;;57.80;2.80;;;;;;;;;;5070403;28;20690;-77
2023/02/18 09:51:30;;;;;;;57.63;2.80;;;;;;;;;;5070840;28;20517;-77
2023/02/18 09:53:57;;;;;;;57.50;2.50;;;;;;;;;;5071767;28;20827;-74
2023/02/18 09:56:28;;;;;;;57.87;3.07;;;;;;;;;;5072208;28;20451;-77
2023/02/18 09:58:58;;;;;;;58.30;2.80;;;;;;;;;;5071278;28;20448;-73
2023/02/18 10:01:29;;;;;;;57.47;2.60;;;;;;;;;;5071688;28;20447;-73
2023/02/18 10:03:58;;;;;;;57.80;2.97;;;;;;;;;;5071259;28;20515;-75
2023/02/18 10:06:27;;;;;;;58.07;2.80;;;;;;;;;;5071922;28;20447;-76
2023/02/18 10:08:55;;;;;;;58.17;3.17;;;;;;;;;;5071056;28;20494;-77
2023/02/18 10:11:23;;;;;;;59.03;3.10;;;;;;;;;;5071557;28;20858;-77
2023/02/18 10:13:51;;;;;;;57.80;3.10;;;;;;;;;;5073848;28;20453;-78
2023/02/18 10:16:21;;;;;;;59.47;3.70;;;;;;;;;;5072119;28;20455;-77
2023/02/18 10:18:49;;;;;;;59.30;2.90;;;;;;;;;;5067680;28;20837;-76
2023/02/18 10:21:19;;;;;;;58.13;2.87;;;;;;;;;;5071794;28;20459;-73
2023/02/18 10:23:51;;;;;;;57.40;2.70;;;;;;;;;;5071383;28;20643;-75
2023/02/18 10:26:19;;;;;;;57.90;2.90;;;;;;;;;;5071282;28;20451;-76
2023/02/18 10:28:47;;;;;;;57.83;3.13;;;;;;;;;;5070813;28;20490;-72
2023/02/18 10:31:16;;;;;;;59.30;3.00;;;;;;;;;;5071441;28;20458;-75
2023/02/18 10:33:47;;;;;;;58.20;3.10;;;;;;;;;;5071323;28;20958;-77
2023/02/18 10:36:27;;;;;;;58.40;3.13;;;;;;;;;;5071350;28;20987;-77
2023/02/18 10:39:06;;;;;;;58.20;2.90;;;;;;;;;;5071626;28;20439;-75
2023/02/18 10:41:38;;;;;;;58.10;3.20;;;;;;;;;;5071292;28;20547;-76
2023/02/18 10:44:09;;;;;;;58.00;3.10;;;;;;;;;;5074415;28;20432;-76
2023/02/18 10:46:39;;;;;;;59.10;3.03;;;;;;;;;;5074543;28;20451;-73
2023/02/18 10:49:21;;;;;;;58.50;2.97;;;;;;;;;;5071861;28;20492;-77
2023/02/18 10:51:49;;;;;;;57.57;2.90;;;;;;;;;;5074037;28;20538;-76
2023/02/18 10:54:16;;;;;;;58.30;3.30;;;;;;;;;;5074601;28;20473;-76
2023/02/18 10:56:47;;;;;;;57.90;3.00;;;;;;;;;;5074498;28;20455;-76
2023/02/18 10:59:15;;;;;;;60.33;3.20;;;;;;;;;;5073482;28;20458;-75
2023/02/18 11:01:44;;;;;;;58.27;3.30;;;;;;;;;;5073805;28;20450;-75
2023/02/18 11:04:17;;;;;;;59.50;2.93;;;;;;;;;;5073886;28;20471;-74
2023/02/18 11:06:45;;;;;;;58.47;3.03;;;;;;;;;;5074252;28;20455;-76
2023/02/18 11:09:23;;;;;;;57.97;3.30;;;;;;;;;;5073788;28;20888;-75
2023/02/18 11:11:50;;;;;;;61.83;3.10;;;;;;;;;;5074320;28;20427;-75
2023/02/18 11:14:36;;;;;;;59.50;2.90;;;;;;;;;;5073873;28;20829;-76
2023/02/18 11:17:08;;;;;;;57.37;2.70;;;;;;;;;;5073425;28;20448;-78
2023/02/18 11:19:39;;;;;;;59.40;2.83;;;;;;;;;;5074215;28;20455;-75
2023/02/18 11:22:15;;;;;;;60.80;2.90;;;;;;;;;;5074010;28;20459;-75
2023/02/18 11:24:47;;;;;;;57.77;2.87;;;;;;;;;;5073761;28;20836;-76
2023/02/18 11:27:19;;;;;;;58.90;2.80;;;;;;;;;;5074205;28;20864;-78
2023/02/18 11:29:46;;;;;;;58.37;3.30;;;;;;;;;;5072590;28;20851;-80
2023/02/18 11:32:13;;;;;;;58.10;2.90;;;;;;;;;;5074334;28;20447;-76
2023/02/18 11:34:42;;;;;;;57.57;2.50;;;;;;;;;;5074815;28;20844;-78
2023/02/18 11:37:10;;;;;;;57.67;2.70;;;;;;;;;;5074366;28;20458;-76
2023/02/18 11:39:37;;;;;;;57.57;2.80;;;;;;;;;;5073868;28;20803;-76
2023/02/18 11:42:06;;;;;;;58.40;3.03;;;;;;;;;;5074623;28;20450;-77
2023/02/18 11:44:34;;;;;;;57.63;3.00;;;;;;;;;;5074413;28;20467;-77
2023/02/18 11:47:02;;;;;;;58.10;2.90;;;;;;;;;;5074610;28;20458;-76
2023/02/18 11:49:29;;;;;;;57.97;3.10;;;;;;;;;;5073990;28;20483;-75
2023/02/18 11:52:04;;;;;;;57.83;3.13;;;;;;;;;;5073518;28;20840;-73
2023/02/18 11:54:34;;;;;;;57.70;2.90;;;;;;;;;;5073454;28;20850;-75
2023/02/18 11:57:03;;;;;;;59.50;2.97;;;;;;;;;;5073410;28;20463;-75
2023/02/18 11:59:31;;;;;;;59.40;3.17;;;;;;;;;;5072952;28;20458;-72
2023/02/18 12:02:01;;;;;;;58.17;3.10;;;;;;;;;;5073269;28;20538;-74
2023/02/18 12:04:30;;;;;;;58.10;3.20;;;;;;;;;;5073140;28;20475;-72
2023/02/18 12:07:06;;;;;;;58.33;2.97;;;;;;;;;;5073006;28;20447;-75
2023/02/18 12:09:37;;;;;;;57.87;2.90;;;;;;;;;;5073047;28;20795;-75
2023/02/18 12:12:07;;;;;;;57.47;2.80;;;;;;;;;;5073217;28;20447;-68
2023/02/18 12:14:34;;;;;;;57.80;2.90;;;;;;;;;;5072950;28;20917;-73
2023/02/18 12:17:22;;;;;;;58.30;3.40;;;;;;;;;;5072890;28;20465;-74
2023/02/18 12:19:57;;;;;;;59.20;3.07;;;;;;;;;;5067632;28;20455;-68
2023/02/18 12:22:29;;;;;;;61.13;3.60;;;;;;;;;;5072773;28;20439;-73
2023/02/18 12:25:03;;;;;;;57.80;3.03;;;;;;;;;;5072854;28;20478;-73
2023/02/18 12:27:34;;;;;;;57.77;3.00;;;;;;;;;;5072632;28;20451;-73
2023/02/18 12:30:09;;;;;;;60.43;3.50;;;;;;;;;;5072284;28;20483;-73
2023/02/18 12:32:40;;;;;;;59.00;3.03;;;;;;;;;;5072745;28;20447;-70
2023/02/18 12:35:23;;;;;;;58.57;3.27;;;;;;;;;;5072563;28;20467;-71
2023/02/18 12:37:57;;;;;;;58.93;3.20;;;;;;;;;;5072428;28;20439;-69
2023/02/18 12:40:36;;;;;;;58.40;3.30;;;;;;;;;;5072300;28;20457;-71
2023/02/18 12:43:07;;;;;;;58.67;3.23;;;;;;;;;;5072562;28;20453;-70
2023/02/18 12:45:51;;;;;;;58.27;3.27;;;;;;;;;;5072076;28;20477;-69
2023/02/18 12:48:29;;;;;;;57.67;2.87;;;;;;;;;;5068274;28;20499;-69
2023/02/18 12:51:04;;;;;;;58.00;3.00;;;;;;;;;;5052076;28;20797;-68
2023/02/18 12:53:39;;;;;;;58.20;3.20;;;;;;;;;;5052240;28;20513;-68
2023/02/18 12:56:17;;;;;;;59.90;3.60;;;;;;;;;;5052258;28;20851;-65
2023/02/18 12:58:49;;;;;;;58.27;3.40;;;;;;;;;;5051734;28;20440;-70
2023/02/18 13:01:32;;;;;;;58.10;3.30;;;;;;;;;;5052287;28;20456;-69
2023/02/18 13:04:04;;;;;;;57.97;3.37;;;;;;;;;;5051478;28;20463;-69
2023/02/18 13:06:46;;;;;;;59.93;3.37;;;;;;;;;;5051786;28;20543;-70
2023/02/18 13:09:18;;;;;;;58.40;3.43;;;;;;;;;;5018281;28;20914;-70
2023/02/18 13:11:52;;;;;;;64.67;3.50;;;;;;;;;;5052081;28;20463;-68
2023/02/18 13:14:21;;;;;;;59.23;3.70;;;;;;;;;;5051710;28;20467;-63
2023/02/18 13:16:51;;;;;;;58.33;3.47;;;;;;;;;;5051887;28;20445;-66
2023/02/18 13:19:21;;;;;;;58.27;3.27;;;;;;;;;;5051535;28;20526;-66
2023/02/18 13:21:49;;;;;;;58.63;2.97;;;;;;;;;;5051632;28;20476;-66
2023/02/18 13:24:22;;;;;;;58.30;3.27;;;;;;;;;;5051644;28;20883;-63
2023/02/18 13:26:54;;;;;;;58.50;3.50;;;;;;;;;;5051829;28;20448;-66
2023/02/18 13:29:24;;;;;;;60.30;3.50;;;;;;;;;;5051359;28;20484;-64
2023/02/18 13:31:55;;;;;;;58.50;3.53;;;;;;;;;;5051693;28;20452;-64
2023/02/18 13:34:25;;;;;;;57.93;3.37;;;;;;;;;;5051426;28;20477;-63
2023/02/18 13:36:57;;;;;;;58.50;3.60;;;;;;;;;;5051559;28;20455;-64
2023/02/18 13:39:24;;;;;;;58.60;3.63;;;;;;;;;;5051231;28;20452;-64
2023/02/18 13:42:10;;;;;;;58.20;3.20;;;;;;;;;;5051541;28;20448;-63
2023/02/18 13:44:41;;;;;;;57.63;3.03;;;;;;;;;;5051305;28;20468;-65
2023/02/18 13:47:09;;;;;;;58.67;3.50;;;;;;;;;;5051597;28;20479;-62
2023/02/18 13:49:38;;;;;;;58.67;4.00;;;;;;;;;;5051155;28;20537;-63
2023/02/18 13:52:06;;;;;;;58.97;3.80;;;;;;;;;;5051279;28;20452;-62
2023/02/18 13:54:35;;;;;;;58.70;3.13;;;;;;;;;;5051390;28;20468;-71
2023/02/18 13:57:05;;;;;;;59.40;3.97;;;;;;;;;;5051387;28;20458;-66
2023/02/18 13:59:34;;;;;;;58.30;3.57;;;;;;;;;;5051472;28;20532;-64
2023/02/18 14:02:09;;;;;;;61.30;4.00;;;;;;;;;;5051905;28;20820;-64
2023/02/18 14:04:37;;;;;;;58.53;3.77;;;;;;;;;;5051187;28;20472;-67
2023/02/18 14:07:23;;;;;;;58.90;4.17;;;;;;;;;;5051486;28;20448;-71
2023/02/18 14:09:50;;;;;;;58.83;3.77;;;;;;;;;;5050627;28;20485;-65
2023/02/18 14:12:32;;;;;;;58.43;3.57;;;;;;;;;;5051394;28;20832;-63
2023/02/18 14:15:01;;;;;;;61.40;3.83;;;;;;;;;;5048818;28;20476;-64
2023/02/18 14:17:33;;;;;;;59.57;3.93;;;;;;;;;;5054894;28;20474;-65
2023/02/18 14:20:18;;;;;;;58.20;3.63;;;;;;;;;;5054763;28;20440;-66
2023/02/18 14:22:46;;;;;;;60.27;3.80;;;;;;;;;;5054919;28;20448;-66
2023/02/18 14:25:17;;;;;;;58.73;3.73;;;;;;;;;;5055162;28;20468;-66
2023/02/18 14:27:44;;;;;;;59.93;3.70;;;;;;;;;;5054959;28;20448;-66
2023/02/18 14:30:18;;;;;;;58.07;3.70;;;;;;;;;;5054715;28;20484;-66
2023/02/18 14:32:46;;;;;;;59.87;4.30;;;;;;;;;;5055183;28;20437;-66
2023/02/18 14:35:23;;;;;;;58.53;3.73;;;;;;;;;;5054862;28;20460;-66
2023/02/18 14:38:27;;;;;;;61.30;3.90;;;20.20;99.90;;;;;;5054902;28;20462;-64
2023/02/18 14:41:09;;;;;;;58.50;3.90;;;;;;;;;;5054466;28;20528;-65